createdAt,value
2022-11-29T00:00:28.878Z,100.00
2022-11-29T00:03:34.024Z,100.00
2022-11-29T00:06:36.333Z,100.00
2022-11-29T00:09:38.848Z,100.00
2022-11-29T00:12:40.998Z,100.00
2022-11-29T00:15:43.381Z,100.00
2022-11-29T00:18:45.503Z,100.00
2022-11-29T00:21:48.092Z,100.00
2022-11-29T00:24:50.217Z,100.00
2022-11-29T00:27:52.824Z,100.00
2022-11-29T00:30:55.137Z,100.00
2022-11-29T00:34:00.030Z,100.00
2022-11-29T00:37:02.169Z,100.00
2022-11-29T00:40:05.721Z,100.00
2022-11-29T00:43:07.861Z,100.00
2022-11-29T00:46:10.843Z,100.00
2022-11-29T00:49:13.094Z,100.00
2022-11-29T00:52:15.555Z,100.00
2022-11-29T00:55:17.804Z,100.00
2022-11-29T00:58:20.855Z,100.00
2022-11-29T01:01:23.088Z,100.00
2022-11-29T01:04:25.634Z,100.00
2022-11-29T01:07:27.823Z,100.00
2022-11-29T01:10:30.329Z,100.00
2022-11-29T01:13:33.831Z,100.00
2022-11-29T01:16:36.432Z,100.00
2022-11-29T01:19:39.121Z,100.00
2022-11-29T01:22:42.521Z,100.00
2022-11-29T01:25:44.633Z,100.00
2022-11-29T01:28:48.393Z,100.00
2022-11-29T01:31:50.518Z,100.00
2022-11-29T01:34:52.974Z,100.00
2022-11-29T01:37:55.402Z,100.00
2022-11-29T01:41:05.764Z,100.00
2022-11-29T01:44:30.664Z,100.00
2022-11-29T01:47:33.921Z,100.00
2022-11-29T01:50:38.596Z,100.00
2022-11-29T01:53:41.107Z,100.00
2022-11-29T01:56:45.268Z,100.00
2022-11-29T01:59:50.979Z,100.00
2022-11-29T02:03:03.677Z,100.00
2022-11-29T02:06:07.712Z,100.00
2022-11-29T02:09:22.150Z,100.00
2022-11-29T02:12:39.841Z,100.00
2022-11-29T02:15:50.759Z,100.00
2022-11-29T02:19:08.554Z,100.00
2022-11-29T02:22:48.861Z,100.00
2022-11-29T02:26:45.155Z,100.00
2022-11-29T02:30:18.013Z,100.00
2022-11-29T02:33:39.284Z,100.00
2022-11-29T02:37:00.126Z,100.00
2022-11-29T02:40:11.573Z,100.00
2022-11-29T02:43:32.429Z,100.00
2022-11-29T02:46:49.441Z,100.00
2022-11-29T02:50:11.041Z,100.00
2022-11-29T02:53:51.947Z,100.00
2022-11-29T02:57:00.032Z,100.00
2022-11-29T03:00:10.399Z,100.00
2022-11-29T03:03:23.604Z,100.00
2022-11-29T03:06:39.410Z,100.00
2022-11-29T03:09:46.388Z,100.00
2022-11-29T03:12:51.976Z,100.00
2022-11-29T03:16:31.345Z,100.00
2022-11-29T03:19:33.648Z,100.00
2022-11-29T03:22:46.933Z,100.00
2022-11-29T03:26:15.787Z,100.00
2022-11-29T03:29:48.144Z,100.00
2022-11-29T03:33:20.895Z,100.00
2022-11-29T03:36:51.900Z,100.00
2022-11-29T03:40:04.296Z,100.00
2022-11-29T03:43:14.150Z,100.00
2022-11-29T03:46:36.664Z,100.00
2022-11-29T03:49:56.064Z,100.00
2022-11-29T03:53:16.784Z,100.00
2022-11-29T03:56:28.360Z,100.00
2022-11-29T03:59:50.337Z,100.00
2022-11-29T04:03:07.965Z,99.73
2022-11-29T04:06:24.345Z,100.00
2022-11-29T04:09:49.907Z,100.00
2022-11-29T04:13:14.355Z,100.00
2022-11-29T04:16:38.709Z,100.00
2022-11-29T04:20:10.353Z,100.00
2022-11-29T04:23:53.097Z,100.00
2022-11-29T04:27:02.040Z,100.00
2022-11-29T04:30:07.007Z,99.82
2022-11-29T04:33:28.189Z,100.00
2022-11-29T04:36:48.887Z,100.00
2022-11-29T04:40:11.518Z,100.00
2022-11-29T04:43:47.363Z,100.00
2022-11-29T04:46:55.853Z,100.00
2022-11-29T04:50:41.333Z,100.00
2022-11-29T04:54:22.036Z,99.87
2022-11-29T04:57:37.507Z,100.00
2022-11-29T05:00:50.515Z,100.00
2022-11-29T05:04:02.525Z,100.00
2022-11-29T05:07:23.913Z,100.00
2022-11-29T05:10:35.437Z,100.00
2022-11-29T05:14:15.508Z,100.00
2022-11-29T05:17:33.489Z,100.00
2022-11-29T05:20:51.538Z,100.00
2022-11-29T05:24:02.667Z,100.00
2022-11-29T05:27:14.189Z,100.00
2022-11-29T05:30:20.155Z,100.00
2022-11-29T05:33:47.301Z,100.00
2022-11-29T05:37:12.448Z,100.00
2022-11-29T05:40:40.513Z,100.00
2022-11-29T05:43:49.682Z,100.00
2022-11-29T05:47:02.191Z,100.00
2022-11-29T05:50:22.849Z,100.00
2022-11-29T05:53:36.586Z,100.00
2022-11-29T05:56:44.673Z,100.00
2022-11-29T05:59:50.265Z,100.00
2022-11-29T06:03:04.394Z,100.00
2022-11-29T06:06:24.760Z,100.00
2022-11-29T06:09:35.375Z,100.00
2022-11-29T06:12:38.806Z,100.00
2022-11-29T06:16:05.498Z,100.00
2022-11-29T06:19:34.375Z,100.00
2022-11-29T06:22:39.268Z,100.00
2022-11-29T06:25:48.552Z,100.00
2022-11-29T06:29:19.252Z,100.00
2022-11-29T06:32:21.981Z,100.00
2022-11-29T06:35:46.840Z,100.00
2022-11-29T06:38:49.598Z,100.00
2022-11-29T06:41:51.821Z,100.00
2022-11-29T06:44:54.646Z,100.00
2022-11-29T06:48:03.757Z,100.00
2022-11-29T06:51:31.368Z,100.00
2022-11-29T06:54:42.813Z,100.00
2022-11-29T06:58:21.746Z,100.00
2022-11-29T07:01:51.769Z,100.00
2022-11-29T07:05:14.825Z,100.00
2022-11-29T07:08:20.172Z,100.00
2022-11-29T07:11:22.978Z,100.00
2022-11-29T07:14:25.444Z,100.00
2022-11-29T07:17:56.248Z,100.00
2022-11-29T07:21:23.645Z,100.00
2022-11-29T07:24:56.455Z,100.00
2022-11-29T07:28:01.412Z,100.00
2022-11-29T07:31:28.575Z,100.00
2022-11-29T07:35:08.303Z,100.00
2022-11-29T07:38:28.394Z,100.00
2022-11-29T07:41:53.009Z,100.00
2022-11-29T07:44:55.262Z,100.00
2022-11-29T07:47:58.161Z,100.00
2022-11-29T07:51:01.603Z,100.00
2022-11-29T07:54:04.551Z,100.00
2022-11-29T07:57:07.041Z,100.00
2022-11-29T08:00:10.606Z,99.92
2022-11-29T08:03:13.596Z,100.00
2022-11-29T08:06:16.025Z,100.00
2022-11-29T08:09:18.185Z,99.15
2022-11-29T08:12:20.719Z,99.61
2022-11-29T08:15:25.332Z,99.09
2022-11-29T08:18:27.831Z,99.34
2022-11-29T08:21:30.084Z,100.00
2022-11-29T08:24:32.605Z,98.51
2022-11-29T08:27:35.982Z,98.64
2022-11-29T08:30:38.423Z,99.38
2022-11-29T08:33:45.385Z,98.75
2022-11-29T08:36:48.850Z,96.85
2022-11-29T08:39:51.127Z,96.58
2022-11-29T08:42:57.613Z,96.24
2022-11-29T08:45:59.823Z,95.18
2022-11-29T08:49:02.542Z,96.87
2022-11-29T08:52:23.525Z,97.78
2022-11-29T08:55:27.231Z,98.65
2022-11-29T08:58:29.578Z,97.84
2022-11-29T09:01:32.002Z,97.24
2022-11-29T09:04:34.165Z,97.18
2022-11-29T09:07:37.228Z,96.27
2022-11-29T09:10:40.609Z,97.80
2022-11-29T09:13:45.692Z,95.99
2022-11-29T09:16:47.885Z,95.16
2022-11-29T09:19:50.654Z,95.81
2022-11-29T09:22:52.834Z,94.85
2022-11-29T09:25:55.835Z,94.26
2022-11-29T09:29:03.558Z,94.61
2022-11-29T09:32:06.536Z,94.58
2022-11-29T09:35:09.117Z,94.29
2022-11-29T09:38:12.932Z,93.28
2022-11-29T09:41:53.094Z,94.95
2022-11-29T09:45:10.454Z,94.34
2022-11-29T09:48:47.429Z,93.65
2022-11-29T09:52:08.269Z,94.80
2022-11-29T09:55:37.648Z,93.70
2022-11-29T09:58:48.943Z,94.36
2022-11-29T10:02:07.985Z,94.57
2022-11-29T10:05:20.587Z,94.50
2022-11-29T10:08:46.106Z,93.39
2022-11-29T10:12:17.441Z,93.18
2022-11-29T10:15:29.424Z,93.37
2022-11-29T10:18:40.843Z,94.04
2022-11-29T10:21:45.542Z,93.22
2022-11-29T10:24:56.805Z,93.29
2022-11-29T10:28:01.705Z,93.20
2022-11-29T10:31:27.576Z,93.52
2022-11-29T10:34:31.410Z,90.87
2022-11-29T10:37:34.773Z,90.38
2022-11-29T10:40:39.780Z,91.86
2022-11-29T10:43:43.173Z,91.54
2022-11-29T10:46:45.380Z,92.14
2022-11-29T10:49:48.413Z,91.91
2022-11-29T10:52:52.064Z,92.76
2022-11-29T10:56:00.191Z,90.80
2022-11-29T10:59:07.793Z,92.42
2022-11-29T11:02:21.101Z,92.90
2022-11-29T11:05:26.581Z,93.00
2022-11-29T11:08:30.606Z,93.20
2022-11-29T11:11:33.803Z,93.28
2022-11-29T11:14:38.750Z,92.60
2022-11-29T11:17:55.638Z,93.16
2022-11-29T11:21:01.884Z,93.04
2022-11-29T11:24:04.232Z,91.55
2022-11-29T11:27:06.776Z,90.51
2022-11-29T11:30:22.337Z,91.22
2022-11-29T11:33:31.151Z,91.18
2022-11-29T11:36:33.309Z,91.69
2022-11-29T11:39:35.769Z,90.88
2022-11-29T11:42:40.969Z,91.38
2022-11-29T11:45:52.442Z,93.28
2022-11-29T11:48:54.995Z,93.30
2022-11-29T11:52:01.656Z,93.13
2022-11-29T11:55:25.492Z,92.05
2022-11-29T11:58:55.842Z,92.20
2022-11-29T12:01:58.073Z,92.00
2022-11-29T12:05:04.817Z,93.24
2022-11-29T12:08:11.028Z,94.22
2022-11-29T12:11:16.515Z,94.13
2022-11-29T12:14:28.786Z,93.97
2022-11-29T12:17:52.918Z,92.71
2022-11-29T12:21:00.347Z,92.71
2022-11-29T12:24:32.322Z,93.34
2022-11-29T12:27:34.641Z,92.26
2022-11-29T12:30:40.595Z,92.18
2022-11-29T12:33:57.750Z,93.10
2022-11-29T12:37:08.755Z,93.08
2022-11-29T12:40:23.567Z,92.89
2022-11-29T12:43:46.627Z,91.85
2022-11-29T12:47:34.109Z,92.34
2022-11-29T12:50:37.113Z,93.27
2022-11-29T12:53:42.430Z,92.56
2022-11-29T12:57:11.141Z,92.41
2022-11-29T13:00:16.565Z,92.05
2022-11-29T13:03:21.637Z,92.60
2022-11-29T13:06:39.528Z,91.36
2022-11-29T13:09:54.209Z,91.54
2022-11-29T13:13:03.365Z,92.61
2022-11-29T13:16:22.995Z,92.41
2022-11-29T13:19:33.530Z,91.78
2022-11-29T13:22:55.000Z,92.38
2022-11-29T13:26:00.604Z,92.56
2022-11-29T13:29:04.061Z,93.33
2022-11-29T13:32:14.663Z,92.94
2022-11-29T13:35:51.028Z,93.78
2022-11-29T13:39:11.676Z,94.00
2022-11-29T13:42:29.365Z,94.03
2022-11-29T13:45:47.790Z,95.16
2022-11-29T13:48:52.644Z,94.67
2022-11-29T13:52:05.626Z,94.02
2022-11-29T13:55:11.539Z,94.17
2022-11-29T13:58:28.907Z,94.53
2022-11-29T14:02:00.540Z,94.44
2022-11-29T14:05:04.580Z,94.50
2022-11-29T14:09:02.507Z,94.84
2022-11-29T14:12:18.460Z,95.45
2022-11-29T14:15:25.287Z,94.69
2022-11-29T14:18:49.676Z,96.07
2022-11-29T14:22:06.808Z,94.93
2022-11-29T14:25:49.785Z,95.24
2022-11-29T14:28:45.759Z,95.95
2022-11-29T14:31:52.827Z,95.75
2022-11-29T14:35:04.020Z,96.37
2022-11-29T14:38:31.134Z,96.03
2022-11-29T14:42:06.810Z,95.75
2022-11-29T14:45:25.970Z,95.42
2022-11-29T14:48:31.911Z,96.09
2022-11-29T14:51:34.925Z,96.67
2022-11-29T14:54:54.603Z,96.61
2022-11-29T14:57:57.606Z,96.77
2022-11-29T15:01:09.642Z,95.67
2022-11-29T15:04:13.138Z,95.68
2022-11-29T15:07:19.434Z,95.48
2022-11-29T15:10:27.113Z,94.88
2022-11-29T15:13:35.445Z,94.57
2022-11-29T15:16:47.129Z,94.62
2022-11-29T15:20:31.884Z,95.14
2022-11-29T15:23:43.924Z,96.00
2022-11-29T15:27:00.063Z,95.53
2022-11-29T15:30:33.279Z,94.54
2022-11-29T15:33:44.002Z,94.81
2022-11-29T15:36:46.504Z,94.34
2022-11-29T15:40:01.765Z,93.68
2022-11-29T15:43:17.566Z,95.27
2022-11-29T15:46:24.363Z,95.17
2022-11-29T15:49:28.507Z,94.52
2022-11-29T15:52:36.369Z,93.70
2022-11-29T15:55:38.984Z,94.87
2022-11-29T15:58:42.028Z,94.22
2022-11-29T16:01:47.176Z,95.01
2022-11-29T16:04:54.477Z,95.49
2022-11-29T16:08:00.365Z,96.26
2022-11-29T16:11:05.002Z,96.47
2022-11-29T16:14:17.512Z,96.01
2022-11-29T16:17:20.937Z,96.65
2022-11-29T16:20:25.452Z,96.65
2022-11-29T16:23:39.397Z,95.62
2022-11-29T16:26:45.298Z,94.91
2022-11-29T16:29:48.545Z,94.61
2022-11-29T16:33:00.429Z,94.68
2022-11-29T16:36:35.491Z,94.47
2022-11-29T16:39:38.715Z,94.50
2022-11-29T16:42:43.137Z,94.78
2022-11-29T16:45:45.472Z,95.45
2022-11-29T16:48:49.354Z,95.56
2022-11-29T16:51:53.740Z,96.72
2022-11-29T16:54:56.977Z,96.97
2022-11-29T16:57:59.140Z,97.13
2022-11-29T17:01:19.325Z,96.77
2022-11-29T17:04:23.475Z,96.34
2022-11-29T17:07:31.569Z,96.76
2022-11-29T17:10:33.857Z,96.85
2022-11-29T17:13:36.313Z,97.00
2022-11-29T17:16:39.343Z,96.85
2022-11-29T17:19:41.848Z,97.58
2022-11-29T17:22:43.954Z,97.39
2022-11-29T17:25:59.370Z,97.50
2022-11-29T17:29:01.495Z,96.68
2022-11-29T17:32:04.087Z,97.17
2022-11-29T17:35:06.409Z,97.40
2022-11-29T17:38:08.788Z,97.23
2022-11-29T17:41:16.268Z,96.71
2022-11-29T17:44:18.623Z,97.06
2022-11-29T17:47:20.757Z,97.35
2022-11-29T17:50:23.142Z,97.54
2022-11-29T17:53:25.508Z,97.58
2022-11-29T17:56:29.187Z,97.76
2022-11-29T17:59:31.420Z,98.76
2022-11-29T18:02:33.961Z,99.06
2022-11-29T18:05:36.495Z,98.46
2022-11-29T18:08:40.494Z,99.06
2022-11-29T18:11:48.738Z,99.60
2022-11-29T18:14:52.355Z,98.69
2022-11-29T18:17:54.884Z,98.28
2022-11-29T18:20:59.314Z,99.24
2022-11-29T18:24:03.806Z,99.74
2022-11-29T18:27:05.923Z,99.13
2022-11-29T18:30:08.976Z,98.13
2022-11-29T18:33:11.305Z,98.76
2022-11-29T18:36:19.585Z,98.43
2022-11-29T18:39:23.531Z,99.20
2022-11-29T18:42:25.904Z,99.22
2022-11-29T18:45:28.003Z,99.52
2022-11-29T18:48:30.455Z,99.84
2022-11-29T18:51:34.223Z,99.43
2022-11-29T18:54:36.690Z,98.12
2022-11-29T18:57:38.855Z,97.93
2022-11-29T19:00:42.485Z,97.94
2022-11-29T19:03:46.713Z,96.69
2022-11-29T19:06:49.367Z,98.11
2022-11-29T19:09:51.478Z,97.22
2022-11-29T19:12:54.893Z,97.00
2022-11-29T19:15:57.070Z,97.22
2022-11-29T19:19:01.239Z,97.81
2022-11-29T19:22:03.405Z,97.95
2022-11-29T19:25:06.347Z,97.66
2022-11-29T19:28:13.902Z,97.69
2022-11-29T19:31:19.199Z,97.85
2022-11-29T19:34:21.379Z,97.62
2022-11-29T19:37:23.884Z,98.26
2022-11-29T19:40:26.050Z,97.89
2022-11-29T19:43:28.459Z,98.72
2022-11-29T19:46:36.272Z,98.06
2022-11-29T19:49:43.561Z,96.92
2022-11-29T19:52:48.776Z,96.79
2022-11-29T19:55:51.177Z,97.29
2022-11-29T19:58:53.379Z,97.79
2022-11-29T20:01:55.892Z,97.89
2022-11-29T20:04:58.390Z,97.65
2022-11-29T20:08:00.649Z,96.73
2022-11-29T20:11:06.135Z,97.80
2022-11-29T20:14:10.401Z,98.21
2022-11-29T20:17:12.924Z,97.85
2022-11-29T20:20:15.560Z,97.70
2022-11-29T20:23:18.049Z,97.18
2022-11-29T20:26:20.924Z,97.88
2022-11-29T20:29:30.453Z,98.78
2022-11-29T20:32:34.856Z,98.83
2022-11-29T20:35:38.251Z,97.44
2022-11-29T20:38:53.867Z,97.15
2022-11-29T20:42:04.777Z,96.50
2022-11-29T20:45:09.051Z,96.24
2022-11-29T20:48:21.106Z,95.72
2022-11-29T20:51:30.348Z,95.32
2022-11-29T20:54:33.349Z,94.31
2022-11-29T20:57:38.345Z,93.77
2022-11-29T21:00:40.892Z,93.71
2022-11-29T21:03:43.202Z,92.92
2022-11-29T21:06:45.729Z,91.66
2022-11-29T21:09:47.942Z,91.88
2022-11-29T21:12:50.745Z,92.31
2022-11-29T21:15:53.625Z,92.86
2022-11-29T21:19:02.134Z,92.62
2022-11-29T21:22:07.441Z,92.09
2022-11-29T21:25:15.866Z,92.36
2022-11-29T21:28:18.508Z,90.93
2022-11-29T21:31:21.280Z,90.55
2022-11-29T21:34:23.423Z,89.90
2022-11-29T21:37:29.121Z,89.37
2022-11-29T21:40:32.572Z,88.70
2022-11-29T21:44:04.867Z,88.16
2022-11-29T21:46:57.344Z,87.17
2022-11-29T21:49:59.787Z,86.85
2022-11-29T21:53:01.940Z,87.04
2022-11-29T21:56:06.713Z,87.02
2022-11-29T21:59:08.789Z,87.75
2022-11-29T22:02:11.437Z,87.84
2022-11-29T22:05:14.091Z,88.19
2022-11-29T22:08:16.214Z,87.21
2022-11-29T22:11:30.766Z,87.12
2022-11-29T22:14:33.580Z,87.32
2022-11-29T22:17:36.008Z,86.31
2022-11-29T22:20:38.161Z,86.19
2022-11-29T22:23:40.791Z,86.63
2022-11-29T22:26:43.745Z,87.06
2022-11-29T22:29:46.269Z,86.87
2022-11-29T22:32:48.985Z,87.61
2022-11-29T22:35:51.386Z,87.23
2022-11-29T22:38:53.606Z,86.70
2022-11-29T22:41:55.956Z,85.64
2022-11-29T22:44:58.198Z,85.95
2022-11-29T22:48:00.718Z,86.20
2022-11-29T22:51:13.292Z,85.97
2022-11-29T22:54:16.487Z,86.15
2022-11-29T22:57:18.887Z,85.67
2022-11-29T23:00:21.415Z,86.12
2022-11-29T23:03:23.535Z,85.63
2022-11-29T23:06:38.043Z,85.94
2022-11-29T23:09:40.190Z,85.46
2022-11-29T23:12:44.476Z,85.13
2022-11-29T23:15:46.614Z,84.77
2022-11-29T23:18:49.734Z,84.15
2022-11-29T23:21:52.050Z,85.11
2022-11-29T23:24:54.499Z,84.08
2022-11-29T23:27:56.670Z,84.12
2022-11-29T23:30:59.308Z,83.73
2022-11-29T23:34:02.583Z,84.38
2022-11-29T23:37:04.987Z,83.41
2022-11-29T23:40:07.845Z,83.72
2022-11-29T23:43:10.298Z,83.56
2022-11-29T23:46:15.642Z,84.04
2022-11-29T23:49:18.517Z,83.67
2022-11-29T23:52:20.615Z,83.63
2022-11-29T23:55:24.594Z,84.22
2022-11-29T23:58:28.646Z,83.48
